Albert, Kansas
Current Conditions -  °F | °C
As of 2:55 AM on Wednesday 26 Nov 2014 (Local Time) from KGBD Reporting Station
Overcast Overcast  
Wind Chill: 40°   Ceiling: 9500
Heat Index: 45°   Visibility: 10mi
Dew Point: 27°   Wind: 9mph
Humidity: 49%   Direction: 330°NNW
Pressure: 30.02"   Gusts: NA
Location:  38.45°N, 99.01°W
Report Text: KGBD 260855Z AUTO 33008KT 10SM SCT080 OVC095 07/M03 A3002 RMK AO1 52020
Loading
Personal Weather Stations






























Interactive Weather Map New forecast layout! Learn more

10-Day Weather Forecast

Advertisements
Track Severe Weather on mobile